Crary, North Dakota
Current Conditions -  °F | °C
As of 11:55 AM on Friday 24 Oct 2014 (Local Time) from KDVL Reporting Station
Clear Clear  
Wind Chill: 63°   Ceiling: Unl
Heat Index: 63°   Visibility: 10mi
Dew Point: 41°   Wind: 17mph
Humidity: 45%   Direction: 270°W
Pressure: 29.79"   Gusts: NA
Location:  48.07°N, 98.64°W
Report Text: KDVL 241655Z AUTO 27015KT 10SM CLR 17/05 A2979 RMK AO1
Loading
Personal Weather Stations






























Interactive Weather Map
Tropical Storm Tracking
New forecast layout! Learn more

10-Day Weather Forecast

Advertisements
Track Severe Weather on mobile